Ana Sayfa
METAR-TAF:

METAR-TAF

Havaalanları :

Fairhope, Alabama, Amerika Birleşik Devletleri

Enlem: 30-27-38N, Boylam: 087-52-37W, yükseklik: 28 m

Güncel hava durumu gözlemi

Rapor saat 17:35 UTC de 28 dakika önce yapıldı.
Rüzgar batı/güneybatıdan 3 kt
Sıcaklık 31°C
Nem 63%
Basınç 1015 hPa
Görüş mesafesi: 16.1 km
Açık gökyüzü

METAR: KCQF 251735Z AUTO 24003KT 10SM CLR 31/23 A2998 RMK AO2

Saat: 13:03 (18:03 UTC)


TAF: eksik

4.000'den fazla havaalanı için hava durumu gözlemleri ve tahminleri (METAR ve TAF raporları).

Kullanılabilir istasyonlar harita üzerinde sarı ve kırmızı noktalarla gösterilir.

İstasyonun adını görmek için fareyi noktanın üzerinde gezdirin.

Sonrasında hava gözlem ve tahminlerini görmek için tıklayın.

Haritayı değiştirmek için: yaklaştırmak için siyah artı işaretli yeşil düğmeye ve uzaklaştırmak için de eksi işaretli düğmeye hızla tıklayın; bitişik haritalar için yeşil okları kullanın.


METAR-TAF: